createdAt,value
2022-10-29T00:00:08.786Z,87.32
2022-10-29T00:02:36.426Z,87.53
2022-10-29T00:05:04.356Z,86.82
2022-10-29T00:07:31.947Z,86.76
2022-10-29T00:09:59.571Z,86.02
2022-10-29T00:12:28.593Z,85.74
2022-10-29T00:14:56.233Z,85.77
2022-10-29T00:17:24.008Z,85.67
2022-10-29T00:19:51.635Z,85.79
2022-10-29T00:22:19.310Z,85.69
2022-10-29T00:24:46.906Z,86.22
2022-10-29T00:27:14.515Z,86.76
2022-10-29T00:29:43.612Z,87.69
2022-10-29T00:32:11.365Z,88.25
2022-10-29T00:34:39.233Z,88.50
2022-10-29T00:37:06.888Z,88.56
2022-10-29T00:39:34.554Z,87.65
2022-10-29T00:42:02.432Z,87.52
2022-10-29T00:44:32.800Z,86.64
2022-10-29T00:47:14.786Z,86.01
2022-10-29T00:49:44.519Z,85.47
2022-10-29T00:52:12.290Z,86.09
2022-10-29T00:54:43.719Z,86.44
2022-10-29T00:57:15.543Z,87.46
2022-10-29T00:59:44.416Z,88.03
2022-10-29T01:02:13.815Z,88.34
2022-10-29T01:04:42.820Z,87.56
2022-10-29T01:07:11.743Z,87.44
2022-10-29T01:09:39.947Z,86.71
2022-10-29T01:12:33.354Z,86.15
2022-10-29T01:15:09.096Z,86.40
2022-10-29T01:17:51.119Z,86.61
2022-10-29T01:20:45.526Z,86.05
2022-10-29T01:23:39.991Z,86.90
2022-10-29T01:26:27.014Z,86.30
2022-10-29T01:29:11.527Z,86.63
2022-10-29T01:31:46.931Z,86.31
2022-10-29T01:34:21.200Z,86.92
2022-10-29T01:36:55.023Z,86.61
2022-10-29T01:39:36.618Z,87.01
2022-10-29T01:42:12.039Z,87.49
2022-10-29T01:44:47.013Z,86.59
2022-10-29T01:47:19.353Z,86.38
2022-10-29T01:49:52.595Z,86.57
2022-10-29T01:52:23.271Z,87.25
2022-10-29T01:54:50.919Z,88.33
2022-10-29T01:57:31.269Z,88.38
2022-10-29T02:00:02.309Z,88.11
2022-10-29T02:02:48.210Z,87.38
2022-10-29T02:05:26.546Z,88.04
2022-10-29T02:08:00.666Z,88.60
2022-10-29T02:10:34.638Z,89.33
2022-10-29T02:13:02.645Z,89.89
2022-10-29T02:15:34.540Z,90.15
2022-10-29T02:18:06.042Z,90.26
2022-10-29T02:20:34.245Z,90.06
2022-10-29T02:23:01.981Z,89.38
2022-10-29T02:25:30.335Z,89.53
2022-10-29T02:27:58.248Z,90.14
2022-10-29T02:30:26.035Z,90.76
2022-10-29T02:32:53.866Z,91.00
2022-10-29T02:35:23.107Z,90.94
2022-10-29T02:37:51.051Z,90.03
2022-10-29T02:40:26.526Z,89.07
2022-10-29T02:42:56.142Z,88.17
2022-10-29T02:45:24.035Z,88.43
2022-10-29T02:47:51.690Z,89.24
2022-10-29T02:50:21.198Z,88.84
2022-10-29T02:52:50.166Z,88.77
2022-10-29T02:55:17.770Z,87.86
2022-10-29T02:57:53.224Z,88.93
2022-10-29T03:00:23.831Z,89.99
2022-10-29T03:02:52.895Z,90.42
2022-10-29T03:05:20.630Z,91.19
2022-10-29T03:07:48.266Z,91.11
2022-10-29T03:10:17.367Z,91.20
2022-10-29T03:12:44.964Z,91.32
2022-10-29T03:15:12.617Z,91.68
2022-10-29T03:17:40.197Z,91.92
2022-10-29T03:20:08.645Z,91.10
2022-10-29T03:22:37.437Z,91.77
2022-10-29T03:25:05.503Z,91.51
2022-10-29T03:27:41.076Z,90.77
2022-10-29T03:30:10.134Z,90.78
2022-10-29T03:32:41.361Z,90.60
2022-10-29T03:35:10.386Z,90.72
2022-10-29T03:37:38.182Z,91.04
2022-10-29T03:40:07.040Z,90.64
2022-10-29T03:42:36.006Z,90.98
2022-10-29T03:45:03.617Z,91.11
2022-10-29T03:47:31.265Z,91.71
2022-10-29T03:49:58.839Z,91.58
2022-10-29T03:52:26.379Z,90.50
2022-10-29T03:54:53.999Z,90.31
2022-10-29T03:57:21.612Z,90.89
2022-10-29T03:59:52.568Z,91.78
2022-10-29T04:02:20.822Z,92.09
2022-10-29T04:04:48.545Z,91.88
2022-10-29T04:07:16.260Z,91.94
2022-10-29T04:09:43.910Z,91.88
2022-10-29T04:12:11.475Z,92.40
2022-10-29T04:14:44.469Z,92.82
2022-10-29T04:17:15.012Z,93.07
2022-10-29T04:19:42.621Z,94.14
2022-10-29T04:28:41.362Z,94.54
2022-10-29T04:30:33.605Z,94.92
2022-10-29T04:33:02.527Z,94.77
2022-10-29T04:35:30.457Z,94.94
2022-10-29T04:37:58.387Z,94.41
2022-10-29T04:40:26.236Z,94.50
2022-10-29T04:42:54.083Z,94.39
2022-10-29T04:45:21.971Z,93.85
2022-10-29T04:47:49.558Z,93.11
2022-10-29T04:50:18.685Z,93.12
2022-10-29T04:52:46.286Z,92.95
2022-10-29T04:55:13.910Z,92.92
2022-10-29T04:57:41.462Z,92.43
2022-10-29T05:00:14.946Z,93.07
2022-10-29T05:02:48.798Z,92.55
2022-10-29T05:05:18.407Z,92.68
2022-10-29T05:07:46.481Z,92.12
2022-10-29T05:10:14.936Z,91.77
2022-10-29T05:12:42.624Z,91.32
2022-10-29T05:15:11.076Z,91.68
2022-10-29T05:17:39.353Z,92.14
2022-10-29T05:20:08.063Z,92.92
2022-10-29T05:22:37.007Z,92.53
2022-10-29T05:25:04.974Z,92.88
2022-10-29T05:27:32.710Z,92.91
2022-10-29T05:30:00.319Z,92.78
2022-10-29T05:32:29.444Z,92.01
2022-10-29T05:34:57.135Z,91.79
2022-10-29T05:37:25.489Z,91.18
2022-10-29T05:39:54.424Z,90.82
2022-10-29T05:42:22.148Z,90.37
2022-10-29T05:44:49.698Z,90.37
2022-10-29T05:47:17.282Z,90.20
2022-10-29T05:49:44.890Z,90.39
2022-10-29T05:52:12.510Z,90.36
2022-10-29T05:54:40.119Z,89.78
2022-10-29T05:57:09.081Z,90.10
2022-10-29T05:59:36.622Z,89.52
2022-10-29T06:02:04.374Z,89.93
2022-10-29T06:04:32.111Z,90.82
2022-10-29T06:06:59.722Z,91.05
2022-10-29T06:09:27.259Z,90.51
2022-10-29T06:11:55.809Z,89.67
2022-10-29T06:14:24.812Z,89.87
2022-10-29T06:16:52.412Z,90.25
2022-10-29T06:19:20.221Z,90.80
2022-10-29T06:21:47.805Z,91.43
2022-10-29T06:24:15.387Z,92.07
2022-10-29T06:26:43.049Z,91.93
2022-10-29T06:29:10.642Z,92.57
2022-10-29T06:31:39.546Z,92.50
2022-10-29T06:34:07.322Z,93.16
2022-10-29T06:36:34.914Z,92.65
2022-10-29T06:39:02.880Z,92.16
2022-10-29T06:41:30.509Z,92.61
2022-10-29T06:43:58.536Z,92.91
2022-10-29T06:46:26.134Z,92.86
2022-10-29T06:48:55.204Z,92.92
2022-10-29T06:53:55.716Z,93.84
2022-10-29T06:56:23.423Z,93.34
2022-10-29T06:58:50.970Z,93.41
2022-10-29T07:01:18.606Z,92.76
2022-10-29T07:03:46.242Z,91.81
2022-10-29T07:06:15.137Z,91.11
2022-10-29T07:08:42.772Z,91.57
2022-10-29T07:11:10.337Z,91.60
2022-10-29T07:13:37.978Z,91.19
2022-10-29T07:16:06.360Z,91.30
2022-10-29T07:18:34.315Z,91.31
2022-10-29T07:21:04.047Z,91.14
2022-10-29T07:23:33.066Z,91.15
2022-10-29T07:26:00.615Z,90.46
2022-10-29T07:28:28.269Z,90.45
2022-10-29T07:31:00.701Z,89.29
2022-10-29T07:33:29.867Z,89.57
2022-10-29T07:35:58.448Z,89.35
2022-10-29T07:38:26.469Z,89.00
2022-10-29T07:40:55.755Z,88.76
2022-10-29T07:43:23.901Z,88.17
2022-10-29T07:45:52.399Z,88.50
2022-10-29T07:48:21.245Z,88.52
2022-10-29T07:50:49.211Z,88.76
2022-10-29T07:53:17.128Z,88.03
2022-10-29T07:55:45.600Z,88.46
2022-10-29T07:58:14.565Z,88.05
2022-10-29T08:00:42.565Z,87.86
2022-10-29T08:03:12.545Z,88.23
2022-10-29T08:05:42.817Z,88.05
2022-10-29T08:08:11.254Z,87.60
2022-10-29T08:10:38.892Z,87.06
2022-10-29T08:13:07.856Z,86.67
2022-10-29T08:15:37.156Z,86.34
2022-10-29T08:18:10.676Z,86.74
2022-10-29T08:20:38.363Z,86.04
2022-10-29T08:23:05.994Z,86.56
2022-10-29T08:25:33.562Z,86.65
2022-10-29T08:28:02.330Z,86.19
2022-10-29T08:30:30.426Z,84.84
2022-10-29T08:32:59.986Z,83.72
2022-10-29T08:35:28.492Z,82.91
2022-10-29T08:37:56.316Z,83.04
2022-10-29T08:40:30.392Z,82.94
2022-10-29T08:43:25.939Z,81.76
2022-10-29T08:45:55.735Z,81.87
2022-10-29T08:48:31.051Z,81.81
2022-10-29T08:51:04.304Z,81.17
2022-10-29T08:53:37.495Z,79.96
2022-10-29T08:56:11.029Z,78.89
2022-10-29T08:58:46.000Z,79.25
2022-10-29T09:01:14.021Z,78.69
2022-10-29T09:03:43.051Z,79.67
2022-10-29T09:06:14.442Z,78.48
2022-10-29T09:08:55.722Z,78.15
2022-10-29T09:11:41.734Z,72.84
2022-10-29T09:14:37.027Z,67.74
2022-10-29T09:17:14.667Z,61.95
2022-10-29T09:20:00.001Z,56.90
2022-10-29T09:22:33.468Z,54.23
2022-10-29T09:25:13.729Z,52.49
2022-10-29T09:27:54.850Z,50.99
2022-10-29T09:30:23.219Z,51.27
2022-10-29T09:32:59.721Z,51.87
2022-10-29T09:35:38.951Z,52.22
2022-10-29T09:38:17.107Z,52.18
2022-10-29T09:40:45.391Z,53.02
2022-10-29T09:43:25.132Z,53.81
2022-10-29T09:46:01.379Z,55.13
2022-10-29T09:48:35.879Z,54.85
2022-10-29T09:51:16.387Z,54.92
2022-10-29T09:53:44.653Z,56.47
2022-10-29T09:56:12.246Z,58.24
2022-10-29T09:58:45.596Z,58.91
2022-10-29T10:01:14.613Z,59.14
2022-10-29T10:03:45.600Z,59.37
2022-10-29T10:06:16.763Z,58.45
2022-10-29T10:09:01.610Z,56.58
2022-10-29T10:11:36.618Z,56.41
2022-10-29T10:14:09.211Z,57.64
2022-10-29T10:16:37.510Z,58.47
2022-10-29T10:19:22.375Z,57.94
2022-10-29T10:21:58.401Z,58.66
2022-10-29T10:24:34.252Z,59.29
2022-10-29T10:27:02.160Z,60.27
2022-10-29T10:29:29.742Z,61.07
2022-10-29T10:32:17.028Z,60.88
2022-10-29T10:34:44.597Z,60.94
2022-10-29T10:37:19.320Z,61.08
2022-10-29T10:39:49.490Z,61.49
2022-10-29T10:42:20.137Z,61.51
2022-10-29T10:44:52.925Z,61.69
2022-10-29T10:47:23.439Z,61.83
2022-10-29T10:49:51.168Z,61.29
2022-10-29T10:52:26.810Z,61.41
2022-10-29T10:55:01.227Z,61.23
2022-10-29T10:57:33.986Z,61.56
2022-10-29T11:00:07.369Z,61.67
2022-10-29T11:02:45.648Z,61.36
2022-10-29T11:05:18.058Z,61.10
2022-10-29T11:07:56.316Z,60.61
2022-10-29T11:10:31.985Z,61.39
2022-10-29T11:13:04.511Z,62.44
2022-10-29T11:15:39.082Z,62.26
2022-10-29T11:20:56.235Z,62.54
2022-10-29T11:23:38.709Z,62.71
2022-10-29T11:26:09.791Z,63.37
2022-10-29T11:28:40.414Z,64.35
2022-10-29T11:31:18.541Z,64.02
2022-10-29T11:33:53.952Z,64.84
2022-10-29T11:36:23.689Z,65.73
2022-10-29T11:38:57.771Z,65.27
2022-10-29T11:41:33.139Z,62.57
2022-10-29T11:44:00.770Z,61.84
2022-10-29T11:46:39.571Z,61.19
2022-10-29T11:49:27.751Z,58.71
2022-10-29T11:52:06.316Z,58.88
2022-10-29T11:55:01.991Z,58.94
2022-10-29T11:57:37.459Z,59.88
2022-10-29T12:00:14.080Z,59.52
2022-10-29T12:02:55.945Z,59.94
2022-10-29T12:05:31.204Z,60.20
2022-10-29T12:08:15.157Z,58.97
2022-10-29T12:10:55.552Z,59.33
2022-10-29T12:13:39.212Z,59.03
2022-10-29T12:16:20.990Z,59.14
2022-10-29T12:18:56.294Z,59.45
2022-10-29T12:21:35.529Z,59.46
2022-10-29T12:24:19.714Z,59.24
2022-10-29T12:26:54.013Z,59.84
2022-10-29T12:29:30.293Z,60.48
2022-10-29T12:32:05.188Z,60.17
2022-10-29T12:34:41.411Z,60.22
2022-10-29T12:37:15.526Z,60.44
2022-10-29T12:39:49.830Z,61.04
2022-10-29T12:42:23.775Z,61.00
2022-10-29T12:45:03.345Z,60.81
2022-10-29T12:47:36.409Z,61.23
2022-10-29T12:50:18.566Z,61.53
2022-10-29T12:52:53.188Z,61.96
2022-10-29T12:55:21.214Z,61.41
2022-10-29T12:57:50.266Z,60.60
2022-10-29T13:00:47.733Z,60.12
2022-10-29T13:03:47.756Z,59.82
2022-10-29T13:06:47.288Z,59.91
2022-10-29T13:09:20.285Z,59.60
2022-10-29T13:11:51.179Z,59.94
2022-10-29T13:14:29.445Z,60.13
2022-10-29T13:16:57.995Z,60.70
2022-10-29T13:19:43.544Z,60.33
2022-10-29T13:22:55.141Z,61.19
2022-10-29T13:25:50.450Z,60.78
2022-10-29T13:28:50.549Z,61.21
2022-10-29T13:31:48.876Z,60.54
2022-10-29T13:34:51.553Z,60.54
2022-10-29T13:37:50.880Z,60.20
2022-10-29T13:41:01.346Z,60.25
2022-10-29T13:43:29.848Z,61.07
2022-10-29T13:46:45.218Z,61.28
2022-10-29T13:49:19.649Z,61.62
2022-10-29T13:51:54.602Z,61.96
2022-10-29T13:54:38.359Z,61.52
2022-10-29T13:57:15.179Z,61.94
2022-10-29T13:59:46.401Z,61.56
2022-10-29T14:02:22.848Z,62.09
2022-10-29T14:04:55.802Z,62.46
2022-10-29T14:07:31.106Z,63.08
2022-10-29T14:10:07.632Z,63.87
2022-10-29T14:12:38.231Z,64.57
2022-10-29T14:15:14.812Z,64.71
2022-10-29T14:17:42.574Z,64.98
2022-10-29T14:20:23.852Z,64.76
2022-10-29T14:22:51.656Z,65.05
2022-10-29T14:25:31.666Z,65.68
2022-10-29T14:28:27.137Z,66.37
2022-10-29T14:31:04.883Z,67.05
2022-10-29T14:33:34.032Z,67.51
2022-10-29T14:36:17.533Z,67.43
2022-10-29T14:38:49.371Z,67.75
2022-10-29T14:41:17.263Z,68.03
2022-10-29T14:43:47.504Z,68.15
2022-10-29T14:46:23.538Z,68.36
2022-10-29T14:48:57.920Z,68.52
2022-10-29T14:51:27.995Z,68.92
2022-10-29T14:54:00.824Z,69.20
2022-10-29T14:56:34.640Z,69.69
2022-10-29T14:59:05.231Z,70.14
2022-10-29T15:01:33.007Z,70.41
2022-10-29T15:04:02.148Z,70.74
2022-10-29T15:06:31.503Z,71.07
2022-10-29T15:09:01.313Z,71.81
2022-10-29T15:11:40.302Z,72.26
2022-10-29T15:17:00.020Z,73.35
2022-10-29T15:19:28.193Z,73.43
2022-10-29T15:21:57.171Z,74.36
2022-10-29T15:24:25.741Z,74.42
2022-10-29T15:26:56.143Z,74.64
2022-10-29T15:29:30.630Z,74.83
2022-10-29T15:32:01.284Z,75.24
2022-10-29T15:34:33.166Z,76.29
2022-10-29T15:37:16.026Z,77.02
2022-10-29T15:40:03.099Z,76.74
2022-10-29T15:42:33.035Z,77.13
2022-10-29T15:45:24.570Z,77.04
2022-10-29T15:47:54.263Z,77.30
2022-10-29T15:50:24.163Z,78.52
2022-10-29T15:52:58.902Z,78.51
2022-10-29T15:55:29.648Z,78.89
2022-10-29T15:58:01.392Z,79.26
2022-10-29T16:00:29.579Z,79.51
2022-10-29T16:03:03.272Z,80.64
2022-10-29T16:05:31.136Z,80.67
2022-10-29T16:08:03.447Z,80.65
2022-10-29T16:10:31.539Z,80.75
2022-10-29T16:12:59.907Z,81.20
2022-10-29T16:18:00.593Z,81.83
2022-10-29T16:20:28.403Z,82.21
2022-10-29T16:22:56.164Z,83.11
2022-10-29T16:25:27.194Z,83.34
2022-10-29T16:27:55.291Z,83.66
2022-10-29T16:30:24.280Z,83.27
2022-10-29T16:32:53.394Z,83.55
2022-10-29T16:35:22.730Z,84.39
2022-10-29T16:37:51.549Z,84.32
2022-10-29T16:40:19.852Z,83.85
2022-10-29T16:42:49.033Z,84.35
2022-10-29T16:45:18.787Z,84.50
2022-10-29T16:47:46.423Z,85.30
2022-10-29T16:50:18.400Z,85.41
2022-10-29T16:52:46.454Z,85.46
2022-10-29T16:55:14.813Z,86.04
2022-10-29T16:57:42.478Z,86.33
2022-10-29T17:00:12.600Z,86.50
2022-10-29T17:02:40.626Z,86.88
2022-10-29T17:05:08.839Z,87.57
2022-10-29T17:07:36.497Z,87.40
2022-10-29T17:10:04.804Z,88.35
2022-10-29T17:12:32.469Z,87.31
2022-10-29T17:15:00.098Z,88.41
2022-10-29T17:17:30.984Z,88.89
2022-10-29T17:19:58.849Z,89.69
2022-10-29T17:22:26.521Z,89.38
2022-10-29T17:24:54.172Z,89.34
2022-10-29T17:27:21.789Z,89.12
2022-10-29T17:29:49.451Z,89.12
2022-10-29T17:32:17.894Z,90.41
2022-10-29T17:34:46.944Z,90.42
2022-10-29T17:37:14.605Z,90.39
2022-10-29T17:39:42.246Z,90.39
2022-10-29T17:42:09.915Z,90.45
2022-10-29T17:44:37.489Z,90.30
2022-10-29T17:47:05.167Z,90.32
2022-10-29T17:49:32.788Z,90.19
2022-10-29T17:52:01.731Z,90.58
2022-10-29T17:54:29.329Z,90.71
2022-10-29T17:56:56.996Z,90.37
2022-10-29T17:59:24.643Z,90.65
2022-10-29T18:01:52.325Z,90.72
2022-10-29T18:04:19.952Z,90.42
2022-10-29T18:06:47.565Z,90.12
2022-10-29T18:09:20.199Z,90.29
2022-10-29T18:11:50.348Z,90.00
2022-10-29T18:14:18.386Z,90.00
2022-10-29T18:16:46.418Z,90.46
2022-10-29T18:19:14.020Z,90.19
2022-10-29T18:21:41.632Z,90.65
2022-10-29T18:24:09.931Z,90.63
2022-10-29T18:26:38.979Z,91.82
2022-10-29T18:29:09.104Z,92.59
2022-10-29T18:31:37.550Z,92.69
2022-10-29T18:34:07.711Z,91.97
2022-10-29T18:36:36.398Z,91.51
2022-10-29T18:39:06.091Z,91.94
2022-10-29T18:41:34.427Z,91.63
2022-10-29T18:44:03.558Z,92.08
2022-10-29T18:46:31.200Z,92.15
2022-10-29T18:48:58.800Z,92.33
2022-10-29T18:51:28.008Z,92.19
2022-10-29T18:53:58.736Z,91.56
2022-10-29T18:56:28.197Z,91.64
2022-10-29T18:58:56.622Z,91.75
2022-10-29T19:01:27.381Z,91.28
2022-10-29T19:03:57.159Z,91.18
2022-10-29T19:06:26.985Z,91.03
2022-10-29T19:08:55.448Z,91.12
2022-10-29T19:11:25.424Z,91.08
2022-10-29T19:13:53.933Z,91.30
2022-10-29T19:16:22.109Z,91.64
2022-10-29T19:18:55.282Z,90.79
2022-10-29T19:21:22.862Z,91.14
2022-10-29T19:23:54.730Z,90.62
2022-10-29T19:26:22.694Z,90.68
2022-10-29T19:28:50.445Z,90.78
2022-10-29T19:31:19.397Z,90.41
2022-10-29T19:33:48.758Z,90.42
2022-10-29T19:36:18.323Z,90.25
2022-10-29T19:38:46.200Z,90.61
2022-10-29T19:41:14.582Z,90.08
2022-10-29T19:43:42.961Z,90.27
2022-10-29T19:46:13.825Z,90.66
2022-10-29T19:48:41.882Z,91.01
2022-10-29T19:51:11.204Z,91.87
2022-10-29T19:53:40.264Z,91.68
2022-10-29T19:56:11.597Z,91.76
2022-10-29T19:58:39.329Z,91.50
2022-10-29T20:01:08.969Z,91.23
2022-10-29T20:03:37.067Z,91.58
2022-10-29T20:06:06.282Z,91.27
2022-10-29T20:08:33.881Z,91.07
2022-10-29T20:11:02.833Z,91.85
2022-10-29T20:13:30.411Z,91.80
2022-10-29T20:15:58.143Z,91.61
2022-10-29T20:18:25.797Z,91.51
2022-10-29T20:20:56.969Z,91.33
2022-10-29T20:23:25.509Z,90.96
2022-10-29T20:25:53.377Z,90.88
2022-10-29T20:28:22.316Z,90.99
2022-10-29T20:30:49.894Z,90.83
2022-10-29T20:33:17.534Z,91.82
2022-10-29T20:35:45.100Z,92.06
2022-10-29T20:38:12.656Z,91.56
2022-10-29T20:40:40.289Z,91.27
2022-10-29T20:43:07.914Z,91.08
2022-10-29T20:45:36.846Z,90.62
2022-10-29T20:48:04.610Z,90.38
2022-10-29T20:50:32.184Z,90.97
2022-10-29T20:52:59.786Z,91.12
2022-10-29T20:55:28.401Z,91.05
2022-10-29T20:57:56.331Z,91.15
2022-10-29T21:00:24.077Z,90.91
2022-10-29T21:02:52.988Z,90.30
2022-10-29T21:05:20.534Z,90.76
2022-10-29T21:07:48.094Z,90.54
2022-10-29T21:10:15.716Z,90.20
2022-10-29T21:12:43.291Z,90.02
2022-10-29T21:15:11.244Z,90.36
2022-10-29T21:17:38.868Z,90.65
2022-10-29T21:20:08.494Z,90.27
2022-10-29T21:22:36.091Z,90.12
2022-10-29T21:25:03.818Z,90.55
2022-10-29T21:27:31.368Z,90.46
2022-10-29T21:29:58.957Z,90.81
2022-10-29T21:32:26.560Z,90.90
2022-10-29T21:34:54.130Z,91.04
2022-10-29T21:37:23.094Z,90.91
2022-10-29T21:39:50.714Z,90.72
2022-10-29T21:42:18.262Z,90.20
2022-10-29T21:44:45.855Z,89.97
2022-10-29T21:47:13.439Z,90.04
2022-10-29T21:49:41.157Z,89.84
2022-10-29T21:52:08.716Z,89.88
2022-10-29T21:54:37.711Z,90.70
2022-10-29T21:57:05.835Z,90.43
2022-10-29T21:59:33.475Z,90.76
2022-10-29T22:02:01.077Z,90.82
2022-10-29T22:04:28.698Z,90.85
2022-10-29T22:06:56.855Z,90.62
2022-10-29T22:09:24.587Z,90.88
2022-10-29T22:11:53.519Z,91.18
2022-10-29T22:14:21.091Z,91.48
2022-10-29T22:16:48.693Z,92.10
2022-10-29T22:19:16.236Z,91.79
2022-10-29T22:21:46.151Z,92.37
2022-10-29T22:24:13.916Z,91.74
2022-10-29T22:26:41.524Z,91.48
2022-10-29T22:29:10.464Z,91.10
2022-10-29T22:31:38.370Z,91.37
2022-10-29T22:34:06.053Z,91.49
2022-10-29T22:36:33.618Z,91.49
2022-10-29T22:39:02.062Z,91.09
2022-10-29T22:41:30.561Z,91.06
2022-10-29T22:43:58.998Z,91.09
2022-10-29T22:46:29.516Z,90.88
2022-10-29T22:48:57.425Z,91.73
2022-10-29T22:51:26.936Z,91.57
2022-10-29T22:53:56.011Z,91.80
2022-10-29T22:56:25.087Z,92.42
2022-10-29T22:58:53.156Z,92.84
2022-10-29T23:01:23.232Z,93.36
2022-10-29T23:03:52.807Z,93.25
2022-10-29T23:06:21.818Z,92.73
2022-10-29T23:08:52.428Z,92.11
2022-10-29T23:11:21.710Z,91.24
2022-10-29T23:13:50.363Z,91.04
2022-10-29T23:16:18.093Z,91.12
2022-10-29T23:18:49.210Z,91.15
2022-10-29T23:21:18.549Z,91.37
2022-10-29T23:23:47.009Z,90.94
2022-10-29T23:26:15.283Z,90.42
2022-10-29T23:28:43.958Z,90.03
2022-10-29T23:31:14.075Z,90.16
2022-10-29T23:33:45.150Z,89.90
2022-10-29T23:36:13.847Z,90.51
2022-10-29T23:38:45.106Z,89.83
2022-10-29T23:41:13.287Z,89.69
2022-10-29T23:43:41.066Z,89.53
2022-10-29T23:46:08.717Z,89.61
2022-10-29T23:48:36.286Z,90.04
2022-10-29T23:51:03.870Z,89.67
2022-10-29T23:53:31.717Z,89.48
2022-10-29T23:56:01.287Z,89.84
2022-10-29T23:58:28.871Z,89.49
